Terminal Aerodrome Forecast
Issued by NWS Lake Charles, LA

Home | Current Version | Previous Version | Text Only | Print | Product List | Glossary On
Versions: 1 2 3 4 5 6 7 8 9 10 11 12 13 14 15 16 17 18 19 20 21 22 23 24 25 26 27 28 29
000
FTUS44 KLCH 231720
TAFLCH
TAF
KLCH 231720Z 2318/2418 14009KT P6SM FEW040 SCT250
     FM240000 15005KT P6SM SCT080 SCT250
      TEMPO 2410/2414 4SM BR SCT025
     FM241400 16009KT P6SM BKN030=

USA.gov is the U.S. government's official web portal to all federal, state and local government web resources and services.